Time;durP1;ratioP1;P1;durP2;ratioP2;P2;SDS_P1;SDS_P2;PMS_P1;PMS_P2;Temp;Humidity;BMP_temperature;BMP_pressure;BME280_temperature;BME280_humidity;BME280_pressure;Samples;Min_cycle;Max_cycle;Signal;HPM_P1;HPM_P2
2023/01/19 00:02:17;;;;;;;28.77;12.45;;;;;;;0.62;100.00;100043.47;5042140;28;20041;-72
2023/01/19 00:04:42;;;;;;;27.35;11.85;;;;;;;0.63;100.00;100044.34;5048565;28;20075;-73
2023/01/19 00:07:08;;;;;;;20.58;11.32;;;;;;;0.64;100.00;100038.91;5047911;28;20021;-73
2023/01/19 00:09:37;;;;;;;19.70;10.88;;;;;;;0.66;100.00;100046.91;5033032;28;20041;-73
2023/01/19 00:12:03;;;;;;;23.60;12.00;;;;;;;0.65;100.00;100045.13;5028278;28;20152;-73
2023/01/19 00:14:28;;;;;;;19.88;11.80;;;;;;;0.64;100.00;100044.25;5028031;28;20548;-73
2023/01/19 00:16:53;;;;;;;24.08;11.38;;;;;;;0.65;100.00;100054.06;5028419;28;20087;-73
2023/01/19 00:19:19;;;;;;;19.25;10.77;;;;;;;0.67;100.00;100043.28;5027904;28;20065;-73
2023/01/19 00:21:44;;;;;;;22.60;11.88;;;;;;;0.65;100.00;100050.50;5027598;28;20112;-73
2023/01/19 00:24:10;;;;;;;21.90;11.23;;;;;;;0.66;100.00;100061.16;5028406;28;20028;-73
2023/01/19 00:26:39;;;;;;;21.75;13.18;;;;;;;0.65;100.00;100063.88;5028187;28;20045;-73
2023/01/19 00:29:05;;;;;;;21.02;11.45;;;;;;;0.65;100.00;100063.88;5009985;28;20069;-73
2023/01/19 00:31:32;;;;;;;22.55;11.35;;;;;;;0.66;100.00;100063.81;5027966;28;20465;-73
2023/01/19 00:33:58;;;;;;;19.85;11.75;;;;;;;0.69;100.00;100070.81;5047277;28;20029;-73
2023/01/19 00:36:24;;;;;;;23.73;12.15;;;;;;;0.68;100.00;100059.25;5033661;28;20432;-73
2023/01/19 00:38:49;;;;;;;23.70;12.00;;;;;;;0.69;100.00;100062.81;5028096;28;20083;-73
2023/01/19 00:41:15;;;;;;;24.73;12.02;;;;;;;0.68;100.00;100063.75;5026534;28;20053;-73
2023/01/19 00:43:40;;;;;;;23.40;12.05;;;;;;;0.68;100.00;100055.72;5027082;28;20109;-73
2023/01/19 00:46:05;;;;;;;24.60;11.55;;;;;;;0.66;100.00;100045.09;5027644;28;20044;-73
2023/01/19 00:48:31;;;;;;;26.83;12.43;;;;;;;0.66;100.00;100038.88;5026188;28;20512;-72
2023/01/19 00:50:56;;;;;;;24.35;11.10;;;;;;;0.66;100.00;100047.75;5026551;28;20041;-74
2023/01/19 00:53:22;;;;;;;22.70;11.73;;;;;;;0.59;100.00;100032.03;5031074;28;20074;-73
2023/01/19 00:55:47;;;;;;;22.48;12.30;;;;;;;0.55;100.00;100031.28;5035519;28;20052;-73
2023/01/19 00:58:13;;;;;;;21.88;11.77;;;;;;;0.50;100.00;100036.84;5028547;28;20052;-73
2023/01/19 01:00:38;;;;;;;21.25;11.00;;;;;;;0.48;100.00;100046.75;5038242;28;20033;-74
2023/01/19 01:03:03;;;;;;;22.40;11.25;;;;;;;0.47;100.00;100045.03;5027493;28;20033;-73
2023/01/19 01:05:29;;;;;;;20.60;11.20;;;;;;;0.47;100.00;100049.53;5026318;28;20041;-73
2023/01/19 01:07:54;;;;;;;20.80;10.95;;;;;;;0.46;100.00;100047.75;5026114;28;20171;-73
2023/01/19 01:10:23;;;;;;;26.63;11.65;;;;;;;0.48;100.00;100059.28;5027217;28;20041;-74
2023/01/19 01:12:49;;;;;;;21.95;11.75;;;;;;;0.46;100.00;100053.97;5027275;28;20432;-73
2023/01/19 01:15:16;;;;;;;22.77;12.05;;;;;;;0.47;100.00;100054.88;5026850;28;20230;-73
2023/01/19 01:17:51;;;;;;;22.38;11.65;;;;;;;0.47;100.00;100063.75;5027844;28;20029;-73
2023/01/19 01:20:20;;;;;;;23.02;12.60;;;;;;;0.49;100.00;100056.53;5026934;28;20033;-73
2023/01/19 01:22:49;;;;;;;24.00;11.23;;;;;;;0.53;100.00;100061.75;5026566;28;20040;-74
2023/01/19 01:25:16;;;;;;;18.83;10.88;;;;;;;0.55;100.00;100067.91;5027240;28;20034;-73
2023/01/19 01:27:42;;;;;;;21.38;11.15;;;;;;;0.59;100.00;100069.50;5037668;28;20412;-73
2023/01/19 01:30:10;;;;;;;20.85;11.20;;;;;;;0.62;100.00;100067.56;5028504;28;20041;-73
2023/01/19 01:32:35;;;;;;;23.13;12.35;;;;;;;0.65;100.00;100059.41;5026949;28;20038;-73
2023/01/19 01:35:00;;;;;;;20.67;11.18;;;;;;;0.66;100.00;100054.94;5025487;28;20041;-73
2023/01/19 01:37:26;;;;;;;21.80;10.43;;;;;;;0.67;100.00;100062.88;5025448;28;20148;-73
2023/01/19 01:39:51;;;;;;;23.23;10.60;;;;;;;0.69;100.00;100055.63;5039630;28;20396;-73
2023/01/19 01:42:19;;;;;;;19.73;10.68;;;;;;;0.73;100.00;100067.09;5045625;28;20057;-73
2023/01/19 01:44:50;;;;;;;21.55;10.93;;;;;;;0.74;100.00;100067.00;5012458;28;20040;-73
2023/01/19 01:47:19;;;;;;;22.45;10.90;;;;;;;0.77;100.00;100060.66;5045039;28;20068;-73
2023/01/19 01:49:46;;;;;;;18.77;10.18;;;;;;;0.79;100.00;100068.59;5034334;28;20060;-74
2023/01/19 01:52:13;;;;;;;25.35;10.27;;;;;;;0.80;100.00;100070.38;5025643;28;20046;-72
2023/01/19 01:54:39;;;;;;;20.98;9.65;;;;;;;0.79;100.00;100069.47;5027290;28;20067;-72
2023/01/19 01:57:11;;;;;;;20.67;9.00;;;;;;;0.78;100.00;100075.78;5027015;28;20041;-73
2023/01/19 01:59:42;;;;;;;18.08;9.13;;;;;;;0.75;100.00;100078.59;5026692;28;20047;-72
2023/01/19 02:05:32;;;;;;;18.67;8.95;;;;;;;0.64;100.00;100083.56;5026599;28;20045;-73
2023/01/19 02:13:45;;;;;;;15.75;9.10;;;;;;;0.54;100.00;100085.75;5030636;28;20029;-73
2023/01/19 02:16:12;;;;;;;18.23;8.38;;;;;;;0.49;100.00;100083.28;5035184;28;20107;-71
2023/01/19 02:18:38;;;;;;;15.00;7.55;;;;;;;0.44;100.00;100085.28;5030225;28;20381;-71
2023/01/19 02:21:11;;;;;;;15.68;7.88;;;;;;;0.39;100.00;100079.28;5043952;28;20045;-72
2023/01/19 02:23:40;;;;;;;13.35;8.10;;;;;;;0.35;100.00;100079.47;5030343;28;20038;-73
2023/01/19 02:26:08;;;;;;;14.48;8.18;;;;;;;0.33;100.00;100087.56;5030069;28;20026;-72
2023/01/19 02:28:36;;;;;;;16.17;7.32;;;;;;;0.31;100.00;100089.41;5030050;28;20540;-72
2023/01/19 02:31:02;;;;;;;14.75;8.25;;;;;;;0.30;100.00;100098.38;5029547;28;20390;-73
2023/01/19 02:33:28;;;;;;;14.05;8.20;;;;;;;0.30;100.00;100094.84;5045055;28;20041;-72
2023/01/19 02:35:55;;;;;;;16.20;8.80;;;;;;;0.28;100.00;100099.38;5049054;28;20533;-72
2023/01/19 02:38:24;;;;;;;16.65;9.90;;;;;;;0.27;100.00;100101.19;5050061;28;20128;-73
2023/01/19 02:40:50;;;;;;;15.68;9.50;;;;;;;0.25;100.00;100095.03;5035952;28;20047;-71
2023/01/19 02:43:18;;;;;;;16.17;9.18;;;;;;;0.24;100.00;100104.00;5029929;28;20059;-72
2023/01/19 02:45:44;;;;;;;22.45;10.10;;;;;;;0.21;100.00;100104.13;5029770;28;20034;-74
2023/01/19 02:48:10;;;;;;;18.17;10.02;;;;;;;0.19;100.00;100103.34;5030502;28;20131;-71
2023/01/19 02:50:42;;;;;;;19.25;10.32;;;;;;;0.18;100.00;100106.91;5028773;28;20465;-71
2023/01/19 02:53:37;;;;;;;22.58;11.02;;;;;;;0.16;100.00;100107.00;5029894;28;20084;-72
2023/01/19 02:56:31;;;;;;;17.33;10.85;;;;;;;0.12;100.00;100108.06;5029388;28;20115;-72
2023/01/19 02:59:18;;;;;;;19.55;11.63;;;;;;;0.09;100.00;100118.00;5029037;28;20037;-71
2023/01/19 03:02:17;;;;;;;23.98;10.45;;;;;;;0.07;100.00;100109.19;5029495;28;20103;-74
2023/01/19 03:04:58;;;;;;;16.95;10.40;;;;;;;0.04;100.00;100115.50;5028443;28;20041;-71
2023/01/19 03:07:34;;;;;;;18.55;9.98;;;;;;;0.02;100.00;100122.75;5028933;28;20045;-71
2023/01/19 03:10:11;;;;;;;18.48;10.43;;;;;;;0.01;100.00;100120.13;5029175;28;20429;-71
2023/01/19 03:12:43;;;;;;;14.75;9.32;;;;;;;-0.03;100.00;100122.94;5028052;28;20493;-71
2023/01/19 03:15:27;;;;;;;17.88;9.77;;;;;;;-0.03;100.00;100130.06;5028893;28;20044;-71
2023/01/19 03:17:57;;;;;;;15.25;9.10;;;;;;;-0.04;100.00;100137.22;5029199;28;20049;-71
2023/01/19 03:20:24;;;;;;;17.27;10.70;;;;;;;-0.06;100.00;100132.88;5028703;28;20071;-73
2023/01/19 03:22:57;;;;;;;15.50;10.02;;;;;;;-0.06;100.00;100139.06;5043612;28;20043;-72
2023/01/19 03:25:23;;;;;;;15.98;10.63;;;;;;;-0.04;100.00;100139.03;5030971;28;20037;-71
2023/01/19 03:27:52;;;;;;;19.33;10.68;;;;;;;-0.08;100.00;100138.28;5035289;28;20044;-71
2023/01/19 03:30:24;;;;;;;17.80;11.75;;;;;;;-0.08;100.00;100135.59;5028702;28;20067;-71
2023/01/19 03:32:54;;;;;;;17.50;10.85;;;;;;;-0.08;100.00;100140.97;5028703;28;20536;-71
2023/01/19 03:35:25;;;;;;;20.20;11.90;;;;;;;-0.13;100.00;100142.06;5027272;28;20045;-72
2023/01/19 03:37:54;;;;;;;17.77;11.38;;;;;;;-0.13;100.00;100152.78;5028351;28;20131;-72
2023/01/19 03:40:21;;;;;;;18.42;10.77;;;;;;;-0.15;100.00;100143.94;5028712;28;20032;-72
2023/01/19 03:42:49;;;;;;;18.02;10.88;;;;;;;-0.17;100.00;100141.31;5027353;28;20057;-75
2023/01/19 03:45:14;;;;;;;16.70;10.50;;;;;;;-0.22;100.00;100143.31;5028422;28;20040;-74
2023/01/19 03:47:40;;;;;;;16.45;10.45;;;;;;;-0.22;100.00;100159.34;5029097;28;20041;-74
2023/01/19 03:50:12;;;;;;;14.70;10.20;;;;;;;-0.25;100.00;100154.13;5028484;28;20033;-73
2023/01/19 03:52:37;;;;;;;16.52;9.25;;;;;;;-0.26;100.00;100155.91;5028176;28;20042;-74
2023/01/19 03:55:04;;;;;;;13.73;8.52;;;;;;;-0.24;100.00;100168.34;5027216;28;20041;-74
2023/01/19 03:57:30;;;;;;;12.10;8.13;;;;;;;-0.23;100.00;100175.41;5028754;28;20496;-74
2023/01/19 03:59:55;;;;;;;13.27;9.18;;;;;;;-0.26;100.00;100173.75;5027747;28;20037;-74
2023/01/19 04:02:22;;;;;;;13.68;8.23;;;;;;;-0.26;100.00;100179.97;5028875;28;20029;-75
2023/01/19 04:04:47;;;;;;;10.40;7.53;;;;;;;-0.25;100.00;100194.19;5026727;28;20521;-75
2023/01/19 04:07:12;;;;;;;11.40;6.85;;;;;;;-0.24;100.00;100193.25;5026979;28;20116;-75
2023/01/19 04:09:38;;;;;;;8.40;5.75;;;;;;;-0.24;100.00;100190.59;5026986;28;20057;-75
2023/01/19 04:12:03;;;;;;;9.68;6.65;;;;;;;-0.24;100.00;100201.28;5027378;28;20081;-76
2023/01/19 04:14:29;;;;;;;8.52;6.60;;;;;;;-0.24;100.00;100201.28;5028148;28;20033;-77
2023/01/19 04:16:55;;;;;;;8.48;5.55;;;;;;;-0.24;100.00;100203.09;5027272;28;20444;-77
2023/01/19 04:19:20;;;;;;;6.63;5.05;;;;;;;-0.28;100.00;100200.56;5027097;28;20041;-78
2023/01/19 04:21:49;;;;;;;6.45;4.78;;;;;;;-0.28;100.00;100207.66;5028587;28;20042;-78
2023/01/19 04:24:15;;;;;;;7.00;4.65;;;;;;;-0.28;100.00;100210.34;5027448;28;20034;-79
2023/01/19 04:26:40;;;;;;;6.13;4.88;;;;;;;-0.29;100.00;100213.94;5030907;28;20025;-79
2023/01/19 04:29:06;;;;;;;7.28;5.05;;;;;;;-0.31;100.00;100208.69;5039522;28;20117;-78
2023/01/19 04:31:31;;;;;;;6.93;5.60;;;;;;;-0.28;100.00;100208.56;5027293;28;20040;-80
2023/01/19 04:33:57;;;;;;;9.40;5.40;;;;;;;-0.31;100.00;100218.50;5048277;28;20029;-80
2023/01/19 04:36:22;;;;;;;6.60;4.93;;;;;;;-0.29;100.00;100225.50;5047561;28;20033;-81
2023/01/19 04:38:47;;;;;;;5.18;3.95;;;;;;;-0.28;100.00;100229.06;5028842;28;20456;-82
2023/01/19 04:41:13;;;;;;;5.55;4.03;;;;;;;-0.29;100.00;100230.84;5027426;28;20497;-82
2023/01/19 04:43:39;;;;;;;5.00;3.80;;;;;;;-0.32;100.00;100222.09;5029244;28;20052;-81
2023/01/19 04:46:05;;;;;;;5.03;3.97;;;;;;;-0.32;100.00;100232.78;5027329;28;20040;-81
2023/01/19 04:48:31;;;;;;;4.07;3.30;;;;;;;-0.31;100.00;100229.19;5027885;28;20513;-83
2023/01/19 04:50:57;;;;;;;4.40;2.90;;;;;;;-0.32;100.00;100217.63;5026801;28;20041;-84
2023/01/19 04:53:22;;;;;;;3.20;2.70;;;;;;;-0.31;100.00;100205.13;5029191;28;20032;-81
2023/01/19 04:55:52;;;;;;;3.05;2.20;;;;;;;-0.31;100.00;100184.63;5027875;28;20037;-81
2023/01/19 04:58:18;;;;;;;3.35;2.88;;;;;;;-0.36;100.00;100186.59;5011231;28;20038;-81
2023/01/19 05:00:43;;;;;;;4.10;2.72;;;;;;;-0.33;100.00;100173.13;5027739;28;20040;-81
2023/01/19 05:03:08;;;;;;;4.05;2.78;;;;;;;-0.35;100.00;100171.44;5027748;28;20063;-83
2023/01/19 05:05:34;;;;;;;3.50;2.80;;;;;;;-0.35;100.00;100169.63;5010290;28;20040;-83
2023/01/19 05:07:59;;;;;;;4.15;3.20;;;;;;;-0.37;100.00;100168.84;5027514;28;20167;-84
2023/01/19 05:10:25;;;;;;;4.93;3.72;;;;;;;-0.36;100.00;100164.38;5031129;28;20453;-84
2023/01/19 05:12:50;;;;;;;5.40;3.53;;;;;;;-0.36;100.00;100167.91;5048954;28;20065;-84
2023/01/19 05:15:16;;;;;;;4.60;3.45;;;;;;;-0.37;100.00;100159.97;5026616;28;20052;-85
2023/01/19 05:17:41;;;;;;;7.63;4.05;;;;;;;-0.35;100.00;100155.41;5027999;28;20025;-84
2023/01/19 05:20:09;;;;;;;7.68;4.25;;;;;;;-0.36;100.00;100162.56;5028910;28;20175;-84
2023/01/19 05:22:34;;;;;;;6.50;3.88;;;;;;;-0.36;100.00;100154.53;5027781;28;20058;-84
2023/01/19 05:25:00;;;;;;;5.65;3.97;;;;;;;-0.37;100.00;100163.50;5027605;28;20496;-84
2023/01/19 05:27:26;;;;;;;6.38;3.85;;;;;;;-0.35;100.00;100171.44;5027783;28;20405;-83
2023/01/19 05:29:51;;;;;;;5.78;3.92;;;;;;;-0.36;100.00;100173.25;5027434;28;20087;-84
2023/01/19 05:32:16;;;;;;;5.22;3.92;;;;;;;-0.38;100.00;100179.56;5032840;28;20388;-84
2023/01/19 05:34:42;;;;;;;7.25;4.28;;;;;;;-0.36;100.00;100188.41;5047430;28;20032;-82
2023/01/19 05:37:07;;;;;;;6.72;4.45;;;;;;;-0.40;100.00;100182.31;5030727;28;20033;-83
2023/01/19 05:39:32;;;;;;;8.13;4.97;;;;;;;-0.36;100.00;100199.09;5046659;28;20033;-82
2023/01/19 05:41:58;;;;;;;7.30;5.25;;;;;;;-0.35;100.00;100192.81;5031125;28;20080;-82
2023/01/19 05:44:23;;;;;;;8.68;5.50;;;;;;;-0.37;100.00;100186.69;5037623;28;20057;-82
2023/01/19 05:46:48;;;;;;;10.50;5.82;;;;;;;-0.38;100.00;100188.44;5028241;28;20037;-83
2023/01/19 05:49:14;;;;;;;9.98;6.60;;;;;;;-0.36;100.00;100189.28;5027872;28;20437;-82
2023/01/19 05:51:44;;;;;;;11.20;6.68;;;;;;;-0.34;100.00;100205.25;5029504;28;20473;-82
2023/01/19 05:54:12;;;;;;;11.93;6.88;;;;;;;-0.33;100.00;100197.19;5015232;28;20064;-83
2023/01/19 05:56:38;;;;;;;12.15;7.03;;;;;;;-0.35;100.00;100195.50;5048747;28;20043;-82
2023/01/19 05:59:04;;;;;;;14.30;7.22;;;;;;;-0.32;100.00;100201.59;5045689;28;20045;-84
2023/01/19 06:01:29;;;;;;;14.23;8.27;;;;;;;-0.35;100.00;100203.50;5031841;28;20079;-83
2023/01/19 06:03:54;;;;;;;14.05;7.63;;;;;;;-0.32;100.00;100206.94;5031524;28;20079;-83
2023/01/19 06:06:20;;;;;;;14.90;8.60;;;;;;;-0.34;100.00;100211.44;5030972;28;20120;-83
2023/01/19 06:08:45;;;;;;;14.18;8.70;;;;;;;-0.32;100.00;100203.41;5014507;28;20377;-84
2023/01/19 06:11:11;;;;;;;15.02;8.57;;;;;;;-0.33;100.00;100212.31;5014962;28;20041;-82
2023/01/19 06:13:38;;;;;;;15.93;8.73;;;;;;;-0.31;100.00;100218.50;5031574;28;20514;-83
2023/01/19 06:16:04;;;;;;;18.50;8.45;;;;;;;-0.33;100.00;100215.00;5030596;28;20124;-83
2023/01/19 06:18:30;;;;;;;18.10;8.52;;;;;;;-0.32;100.00;100222.97;5032002;28;20064;-81
2023/01/19 06:20:57;;;;;;;19.95;9.07;;;;;;;-0.34;100.00;100222.16;5030533;28;20037;-82
2023/01/19 06:23:30;;;;;;;15.27;9.38;;;;;;;-0.31;100.00;100223.84;5032520;28;20087;-81
2023/01/19 06:25:56;;;;;;;15.88;8.57;;;;;;;-0.31;100.00;100226.50;5030507;28;20043;-83
2023/01/19 06:28:22;;;;;;;17.60;9.05;;;;;;;-0.29;100.00;100233.53;5032969;28;20036;-82
2023/01/19 06:30:52;;;;;;;13.73;9.80;;;;;;;-0.31;100.00;100232.72;5031561;28;20037;-82
2023/01/19 06:33:18;;;;;;;19.27;10.77;;;;;;;-0.31;100.00;100231.88;5030668;28;20060;-82
2023/01/19 06:35:48;;;;;;;20.23;10.73;;;;;;;-0.31;100.00;100243.41;5029858;28;20037;-83
2023/01/19 06:38:15;;;;;;;21.15;11.60;;;;;;;-0.29;100.00;100243.34;5030611;28;20045;-81
2023/01/19 06:40:41;;;;;;;16.75;10.80;;;;;;;-0.29;100.00;100254.03;5031599;28;20112;-83
2023/01/19 06:43:08;;;;;;;17.77;11.95;;;;;;;-0.30;100.00;100245.16;5030111;28;20519;-83
2023/01/19 06:45:34;;;;;;;25.40;13.50;;;;;;;-0.31;100.00;100251.44;5030791;28;20112;-82
2023/01/19 06:48:00;;;;;;;29.65;13.90;;;;;;;-0.30;100.00;100263.88;5031597;28;20048;-83
2023/01/19 06:50:25;;;;;;;22.02;13.15;;;;;;;-0.30;100.00;100265.66;5013075;28;20416;-81
2023/01/19 06:52:51;;;;;;;21.83;14.18;;;;;;;-0.33;100.00;100261.31;5031173;28;20033;-82
2023/01/19 06:55:17;;;;;;;27.67;15.68;;;;;;;-0.28;100.00;100275.38;5013561;28;20450;-82
2023/01/19 06:57:43;;;;;;;26.73;14.80;;;;;;;-0.30;100.00;100268.34;5031292;28;20042;-82
2023/01/19 07:00:10;;;;;;;25.67;16.50;;;;;;;-0.24;100.00;100283.28;5030055;28;20053;-81
2023/01/19 07:02:42;;;;;;;26.77;16.75;;;;;;;-0.27;100.00;100276.25;5028747;28;20022;-82
2023/01/19 07:05:09;;;;;;;30.63;18.27;;;;;;;-0.26;100.00;100275.31;5029771;28;20060;-82
2023/01/19 07:07:35;;;;;;;30.55;18.08;;;;;;;-0.28;100.00;100275.38;5029401;28;20080;-82
2023/01/19 07:10:01;;;;;;;28.90;19.13;;;;;;;-0.27;100.00;100292.28;5019762;28;20037;-82
2023/01/19 07:12:26;;;;;;;32.88;18.58;;;;;;;-0.28;100.00;100286.06;5048558;28;20039;-81
2023/01/19 07:14:51;;;;;;;31.67;19.50;;;;;;;-0.21;100.00;100300.06;5036314;28;20148;-82
2023/01/19 07:17:17;;;;;;;32.92;19.10;;;;;;;-0.18;100.00;100299.97;5029867;28;20503;-81
2023/01/19 07:19:43;;;;;;;37.75;19.83;;;;;;;-0.19;100.00;100298.19;5030986;28;20436;-82
2023/01/19 07:22:08;;;;;;;35.17;19.58;;;;;;;-0.20;100.00;100296.47;5025430;28;20028;-84
2023/01/19 07:24:34;;;;;;;32.13;19.42;;;;;;;-0.15;100.00;100304.31;5049209;28;20044;-83
2023/01/19 07:27:00;;;;;;;35.80;20.10;;;;;;;-0.15;100.00;100306.97;5030044;28;20029;-82
2023/01/19 07:29:25;;;;;;;33.95;20.25;;;;;;;-0.14;100.00;100309.63;5029147;28;20040;-83
2023/01/19 07:31:53;;;;;;;43.90;20.10;;;;;;;-0.13;100.00;100316.72;5012839;28;20037;-83
2023/01/19 07:34:19;;;;;;;41.08;21.73;;;;;;;-0.14;100.00;100312.28;5029113;28;20040;-82
2023/01/19 07:36:44;;;;;;;39.25;20.98;;;;;;;-0.12;100.00;100320.25;5029088;28;20017;-81
2023/01/19 07:39:10;;;;;;;36.40;20.27;;;;;;;-0.13;100.00;100316.72;5042049;28;20527;-82
2023/01/19 07:41:35;;;;;;;37.45;19.67;;;;;;;-0.15;100.00;100320.34;5048913;28;20052;-82
2023/01/19 07:44:05;;;;;;;36.33;20.65;;;;;;;-0.13;100.00;100321.19;5042049;28;20044;-82
2023/01/19 07:46:30;;;;;;;39.78;20.40;;;;;;;-0.13;100.00;100330.06;5030220;28;20400;-82
2023/01/19 07:48:55;;;;;;;35.83;19.42;;;;;;;-0.15;100.00;100325.69;5028593;28;20420;-83
2023/01/19 07:51:21;;;;;;;41.22;19.00;;;;;;;-0.12;100.00;100338.97;5011971;28;20689;-82
2023/01/19 07:53:49;;;;;;;36.83;20.80;;;;;;;-0.13;100.00;100331.88;5012188;28;20164;-82
2023/01/19 07:56:14;;;;;;;37.22;20.98;;;;;;;-0.12;100.00;100345.19;5028426;28;20045;-82
2023/01/19 07:58:40;;;;;;;38.30;20.17;;;;;;;-0.12;100.00;100345.19;5030125;28;20055;-82
2023/01/19 08:01:07;;;;;;;41.63;20.23;;;;;;;-0.11;100.00;100356.75;5036011;28;20427;-82
2023/01/19 08:03:33;;;;;;;38.22;20.23;;;;;;;-0.12;100.00;100355.00;5049863;28;20037;-83
2023/01/19 08:05:58;;;;;;;41.30;19.02;;;;;;;-0.16;100.00;100353.38;5047501;28;20044;-82
2023/01/19 08:08:24;;;;;;;37.22;19.00;;;;;;;-0.15;100.00;100355.97;5022843;28;20360;-82
2023/01/19 08:10:50;;;;;;;42.13;21.63;;;;;;;-0.12;100.00;100361.22;5029560;28;20037;-84
2023/01/19 08:13:16;;;;;;;43.72;21.52;;;;;;;-0.11;100.00;100362.09;5028054;28;20033;-82
2023/01/19 08:15:41;;;;;;;34.20;19.08;;;;;;;-0.10;100.00;100370.03;5038716;28;20025;-83
2023/01/19 08:18:08;;;;;;;38.33;20.40;;;;;;;-0.08;100.00;100365.53;5028431;28;20073;-83
2023/01/19 08:20:34;;;;;;;45.92;19.88;;;;;;;-0.07;100.00;100379.75;5027311;28;20509;-82
2023/01/19 08:23:01;;;;;;;38.25;19.48;;;;;;;-0.02;100.00;100392.03;5029542;28;20100;-84
2023/01/19 08:25:37;;;;;;;40.25;19.70;;;;;;;0.00;100.00;100389.31;5029581;28;20041;-83
2023/01/19 08:28:05;;;;;;;44.55;19.77;;;;;;;-0.01;100.00;100388.41;5028645;28;20409;-83
2023/01/19 08:30:30;;;;;;;39.95;18.83;;;;;;;0.03;100.00;100393.66;5031705;28;20044;-84
2023/01/19 08:33:02;;;;;;;39.33;20.58;;;;;;;0.07;100.00;100395.31;5038622;28;20041;-86
2023/01/19 08:35:32;;;;;;;39.15;19.60;;;;;;;0.11;100.00;100395.13;5013405;28;20132;-84
2023/01/19 08:38:00;;;;;;;41.40;20.25;;;;;;;0.16;100.00;100405.66;5032555;28;20034;-85
2023/01/19 08:40:32;;;;;;;47.00;20.63;;;;;;;0.17;100.00;100399.38;5029333;28;20124;-88
2023/01/19 08:43:04;;;;;;;46.75;20.50;;;;;;;0.19;100.00;100409.09;5030133;28;20064;-87
2023/01/19 08:45:30;;;;;;;38.58;18.95;;;;;;;0.20;100.00;100412.66;5029594;28;20025;-86
2023/01/19 08:47:57;;;;;;;46.80;18.73;;;;;;;0.21;100.00;100417.94;5031715;28;20021;-86
2023/01/19 08:50:24;;;;;;;49.45;20.17;;;;;;;0.20;100.00;100420.69;5028006;28;20071;-85
2023/01/19 08:52:49;;;;;;;45.08;20.08;;;;;;;0.19;100.00;100421.63;5028583;28;20545;-86
2023/01/19 08:55:15;;;;;;;46.35;19.45;;;;;;;0.21;100.00;100427.75;5028335;28;20042;-86
2023/01/19 08:57:41;;;;;;;45.88;21.38;;;;;;;0.25;100.00;100429.41;5051487;28;20484;-88
2023/01/19 09:00:08;;;;;;;41.70;19.73;;;;;;;0.32;100.00;100430.91;5036309;28;20037;-87
2023/01/19 09:02:33;;;;;;;50.67;21.85;;;;;;;0.43;100.00;100433.19;5031209;28;20357;-88
2023/01/19 09:04:59;;;;;;;50.22;20.95;;;;;;;0.44;100.00;100434.94;5029645;28;20033;-92
2023/01/19 09:07:24;;;;;;;46.28;20.67;;;;;;;0.45;100.00;100436.69;5031558;28;20080;-90
2023/01/19 09:09:49;;;;;;;52.45;22.30;;;;;;;0.49;100.00;100439.19;5046690;28;20497;-91
2023/01/19 09:12:15;;;;;;;53.80;22.42;;;;;;;0.52;100.00;100440.03;5038493;28;20184;-88
2023/01/19 09:14:41;;;;;;;54.42;21.10;;;;;;;0.51;100.00;100441.78;5042975;28;20060;-89
2023/01/19 09:17:06;;;;;;;56.88;22.05;;;;;;;0.47;100.00;100442.88;5038271;28;20038;-90
2023/01/19 09:19:31;;;;;;;59.17;21.38;;;;;;;0.45;100.00;100450.94;5039046;28;20056;-85
2023/01/19 09:21:58;;;;;;;53.25;21.75;;;;;;;0.45;100.00;100442.03;5036184;28;20105;-88
2023/01/19 09:24:24;;;;;;;54.35;21.15;;;;;;;0.50;100.00;100461.47;5036709;28;20030;-90
2023/01/19 09:26:49;;;;;;;58.50;21.38;;;;;;;0.55;100.00;100458.63;5039342;28;20056;-90
2023/01/19 09:29:14;;;;;;;54.78;23.63;;;;;;;0.61;100.00;100456.59;5036502;28;20045;-86
2023/01/19 09:31:40;;;;;;;59.55;23.48;;;;;;;0.70;100.00;100458.03;5040408;28;20536;-90
2023/01/19 09:34:05;;;;;;;54.78;21.35;;;;;;;0.76;100.00;100458.69;5052941;28;20091;-89
2023/01/19 09:36:31;;;;;;;46.33;22.30;;;;;;;0.80;100.00;100454.09;5053538;28;20040;-87
2023/01/19 09:38:57;;;;;;;52.13;22.30;;;;;;;0.85;100.00;100462.81;5034085;28;20076;-86
2023/01/19 09:41:24;;;;;;;52.85;21.38;;;;;;;0.86;100.00;100464.56;5015282;28;20053;-85
2023/01/19 09:43:55;;;;;;;50.28;20.88;;;;;;;0.90;100.00;100474.22;5032545;28;20045;-87
2023/01/19 09:46:28;;;;;;;51.90;20.10;;;;;;;0.94;100.00;100469.63;5031424;28;20033;-89
2023/01/19 09:48:56;;;;;;;;;;;;;;;0.94;100.00;100467.81;5031448;28;20477;-87
2023/01/19 09:51:32;;;;;;;38.75;18.65;;;;;;;0.94;100.00;100473.16;5043758;28;19917;-87
2023/01/19 09:54:13;;;;;;;41.35;18.30;;;;;;;0.94;100.00;100470.50;5051988;28;20060;-88
2023/01/19 09:56:39;;;;;;;41.45;17.63;;;;;;;0.97;100.00;100480.19;5014485;28;20041;-88
2023/01/19 09:59:24;;;;;;;42.58;19.77;;;;;;;0.99;100.00;100486.38;5036144;28;20234;-87
2023/01/19 10:01:58;;;;;;;46.60;17.55;;;;;;;1.02;100.00;100489.78;5035875;28;20037;-89
2023/01/19 10:04:33;;;;;;;37.40;18.17;;;;;;;1.10;100.00;100484.16;5013601;28;20076;-86
2023/01/19 10:07:25;;;;;;;34.22;16.10;;;;;;;1.12;100.00;100494.78;5030016;28;20151;-86
2023/01/19 10:10:11;;;;;;;41.25;17.80;;;;;;;1.16;100.00;100497.28;5029764;28;20045;-87
2023/01/19 10:12:49;;;;;;;33.47;16.30;;;;;;;1.18;100.00;100497.25;5030478;28;20087;-87
2023/01/19 10:15:41;;;;;;;42.15;15.73;;;;;;;1.15;100.00;100500.03;5030369;28;20049;-86
2023/01/19 10:18:12;;;;;;;33.53;15.63;;;;;;;1.19;100.00;100501.66;5030388;28;20522;-85
2023/01/19 10:20:46;;;;;;;37.80;16.20;;;;;;;1.19;100.00;100502.53;5030606;28;20033;-86
2023/01/19 10:23:56;;;;;;;33.55;14.95;;;;;;;1.25;100.00;100504.97;5031180;28;20523;-88
2023/01/19 10:26:35;;;;;;;32.13;14.10;;;;;;;1.20;100.00;100506.94;5030058;28;20405;-87
2023/01/19 10:29:17;;;;;;;37.60;15.75;;;;;;;1.18;100.00;100500.78;5030741;28;20071;-85
2023/01/19 10:31:45;;;;;;;36.60;15.80;;;;;;;1.24;100.00;100513.06;5031778;28;20060;-86
2023/01/19 10:34:17;;;;;;;35.65;14.93;;;;;;;1.24;100.00;100503.22;5049691;28;20032;-86
2023/01/19 10:36:44;;;;;;;30.98;15.13;;;;;;;1.27;100.00;100503.13;5014140;28;20090;-86
2023/01/19 10:39:14;;;;;;;30.08;15.38;;;;;;;1.33;100.00;100506.47;5031521;28;20033;-86
2023/01/19 10:41:43;;;;;;;35.00;14.38;;;;;;;1.35;100.00;100513.50;5047474;28;20041;-86
2023/01/19 10:44:09;;;;;;;31.23;14.57;;;;;;;1.38;100.00;100508.03;5026920;28;20037;-86
2023/01/19 10:46:40;;;;;;;37.20;15.07;;;;;;;1.42;100.00;100509.66;5029524;28;20423;-87
2023/01/19 10:49:22;;;;;;;29.00;13.07;;;;;;;1.44;100.00;100506.91;5029396;28;20044;-86
2023/01/19 10:51:48;;;;;;;25.73;14.15;;;;;;;1.48;100.00;100505.84;5029094;28;20033;-88
2023/01/19 10:54:14;;;;;;;29.65;14.15;;;;;;;1.52;100.00;100516.38;5029733;28;20370;-85
2023/01/19 10:56:40;;;;;;;31.63;14.63;;;;;;;1.57;100.00;100507.28;5050064;28;20040;-87
2023/01/19 10:59:26;;;;;;;32.70;16.38;;;;;;;1.59;100.00;100505.44;5027137;28;20037;-88
2023/01/19 11:02:15;;;;;;;30.35;13.98;;;;;;;1.65;100.00;100514.09;5029265;28;20448;-86
2023/01/19 11:04:41;;;;;;;32.13;13.80;;;;;;;1.68;100.00;100510.41;5031814;28;20056;-87
2023/01/19 11:07:33;;;;;;;31.17;14.40;;;;;;;1.74;100.00;100508.34;5029412;28;20029;-87
2023/01/19 11:10:19;;;;;;;32.88;13.20;;;;;;;1.78;100.00;100509.09;5044184;28;20057;-87
2023/01/19 11:12:54;;;;;;;32.63;15.13;;;;;;;1.78;100.00;100507.28;5049594;28;20488;-85
2023/01/19 11:15:32;;;;;;;27.15;13.30;;;;;;;1.79;100.00;100500.97;5035031;28;20048;-87
2023/01/19 11:17:58;;;;;;;31.15;14.82;;;;;;;1.82;100.00;100499.09;5029466;28;20042;-87
2023/01/19 11:20:28;;;;;;;29.77;13.43;;;;;;;1.85;100.00;100504.34;5030074;28;20041;-86
2023/01/19 11:23:27;;;;;;;33.55;15.38;;;;;;;1.91;100.00;100509.44;5048480;28;20041;-85
2023/01/19 11:25:55;;;;;;;30.15;14.90;;;;;;;1.94;100.00;100510.19;5037051;28;20049;-85